createdAt,value
2023-05-21T00:00:22.738Z,99.90
2023-05-21T00:02:49.899Z,99.90
2023-05-21T00:05:18.650Z,99.90
2023-05-21T00:07:47.536Z,99.90
2023-05-21T00:10:14.694Z,99.90
2023-05-21T00:12:42.048Z,99.90
2023-05-21T00:15:09.759Z,99.90
2023-05-21T00:17:37.312Z,99.90
2023-05-21T00:20:07.577Z,99.90
2023-05-21T00:22:36.471Z,99.90
2023-05-21T00:25:04.370Z,99.90
2023-05-21T00:27:31.413Z,99.90
2023-05-21T00:29:58.514Z,99.90
2023-05-21T00:32:25.829Z,99.90
2023-05-21T00:34:52.991Z,99.90
2023-05-21T00:37:20.914Z,99.90
2023-05-21T00:39:48.185Z,99.90
2023-05-21T00:42:18.507Z,99.90
2023-05-21T00:44:46.669Z,99.90
2023-05-21T00:47:14.840Z,99.90
2023-05-21T00:49:42.672Z,99.90
2023-05-21T00:52:10.194Z,99.90
2023-05-21T00:54:37.288Z,99.90
2023-05-21T00:57:05.140Z,99.90
2023-05-21T00:59:33.746Z,99.90
2023-05-21T01:02:05.636Z,99.90
2023-05-21T01:04:32.814Z,99.90
2023-05-21T01:06:59.884Z,99.90
2023-05-21T01:09:28.378Z,99.90
2023-05-21T01:11:56.560Z,99.90
2023-05-21T01:14:25.163Z,99.90
2023-05-21T01:16:53.167Z,99.90
2023-05-21T01:19:24.561Z,99.90
2023-05-21T01:21:56.555Z,99.90
2023-05-21T01:24:23.641Z,99.90
2023-05-21T01:26:50.762Z,99.90
2023-05-21T01:29:18.150Z,99.90
2023-05-21T01:32:07.440Z,99.90
2023-05-21T01:34:49.025Z,99.90
2023-05-21T01:37:43.637Z,99.90
2023-05-21T01:40:40.841Z,99.90
2023-05-21T01:43:09.814Z,99.90
2023-05-21T01:45:40.769Z,99.90
2023-05-21T01:48:09.694Z,99.90
2023-05-21T01:50:39.206Z,99.90
2023-05-21T01:53:06.293Z,99.90
2023-05-21T01:55:34.198Z,99.90
2023-05-21T01:58:02.619Z,99.90
2023-05-21T02:00:32.361Z,99.90
2023-05-21T02:02:59.968Z,99.90
2023-05-21T02:05:27.152Z,99.90
2023-05-21T02:07:55.087Z,99.90
2023-05-21T02:10:22.287Z,99.90
2023-05-21T02:12:49.327Z,99.90
2023-05-21T02:15:18.220Z,99.90
2023-05-21T02:17:46.693Z,99.90
2023-05-21T02:20:14.684Z,99.90
2023-05-21T02:22:46.506Z,99.90
2023-05-21T02:25:18.714Z,99.90
2023-05-21T02:27:47.131Z,99.90
2023-05-21T02:30:16.375Z,99.90
2023-05-21T02:32:45.178Z,99.90
2023-05-21T02:35:13.362Z,99.90
2023-05-21T02:37:41.070Z,99.90
2023-05-21T02:40:10.790Z,99.90
2023-05-21T02:42:40.246Z,99.90
2023-05-21T02:45:12.017Z,99.90
2023-05-21T02:47:39.368Z,99.90
2023-05-21T02:50:08.099Z,99.90
2023-05-21T02:52:35.813Z,99.90
2023-05-21T02:55:02.974Z,99.90
2023-05-21T02:57:30.049Z,99.90
2023-05-21T02:59:57.042Z,99.90
2023-05-21T03:02:24.301Z,99.90
2023-05-21T03:04:51.748Z,99.90
2023-05-21T03:07:20.308Z,99.90
2023-05-21T03:09:47.536Z,99.90
2023-05-21T03:12:14.731Z,99.90
2023-05-21T03:14:46.709Z,99.90
2023-05-21T03:17:17.269Z,99.90
2023-05-21T03:19:45.753Z,99.90
2023-05-21T03:22:12.789Z,99.90
2023-05-21T03:24:41.604Z,99.90
2023-05-21T03:27:08.670Z,99.90
2023-05-21T03:29:36.287Z,99.90
2023-05-21T03:32:03.623Z,99.90
2023-05-21T03:34:31.667Z,99.90
2023-05-21T03:36:58.664Z,99.90
2023-05-21T03:39:25.890Z,99.90
2023-05-21T03:41:52.979Z,99.90
2023-05-21T03:44:20.030Z,99.90
2023-05-21T03:46:47.065Z,99.90
2023-05-21T03:49:15.117Z,99.90
2023-05-21T03:51:42.148Z,99.90
2023-05-21T03:54:09.250Z,99.90
2023-05-21T03:56:36.291Z,99.90
2023-05-21T03:59:03.347Z,99.90
2023-05-21T04:01:30.910Z,99.90
2023-05-21T04:03:58.207Z,99.90
2023-05-21T04:06:25.393Z,99.90
2023-05-21T04:08:52.533Z,99.90
2023-05-21T04:11:19.564Z,99.90
2023-05-21T04:13:48.261Z,99.90
2023-05-21T04:16:19.518Z,99.90
2023-05-21T04:18:47.582Z,99.90
2023-05-21T04:21:14.647Z,99.90
2023-05-21T04:23:41.667Z,99.90
2023-05-21T04:26:08.938Z,99.90
2023-05-21T04:28:36.717Z,99.90
2023-05-21T04:31:03.816Z,99.90
2023-05-21T04:33:30.924Z,99.90
2023-05-21T04:35:58.117Z,99.90
2023-05-21T04:38:26.118Z,99.90
2023-05-21T04:40:53.692Z,99.90
2023-05-21T04:43:26.528Z,99.90
2023-05-21T04:45:57.241Z,99.90
2023-05-21T04:48:27.674Z,99.90
2023-05-21T04:50:56.269Z,99.90
2023-05-21T04:53:23.882Z,99.90
2023-05-21T04:55:50.960Z,99.90
2023-05-21T04:58:19.563Z,99.90
2023-05-21T05:00:47.268Z,99.90
2023-05-21T05:03:14.784Z,99.90
2023-05-21T05:05:42.211Z,99.90
2023-05-21T05:08:09.304Z,99.90
2023-05-21T05:10:36.643Z,99.90
2023-05-21T05:13:03.840Z,99.90
2023-05-21T05:15:31.269Z,99.90
2023-05-21T05:17:58.388Z,99.90
2023-05-21T05:20:25.515Z,99.90
2023-05-21T05:22:52.504Z,99.90
2023-05-21T05:25:19.623Z,99.90
2023-05-21T05:27:46.587Z,99.90
2023-05-21T05:30:14.358Z,99.90
2023-05-21T05:32:41.430Z,99.90
2023-05-21T05:35:09.081Z,99.90
2023-05-21T05:37:36.609Z,99.90
2023-05-21T05:40:04.717Z,99.90
2023-05-21T05:42:31.813Z,99.90
2023-05-21T05:44:58.848Z,99.90
2023-05-21T05:47:25.890Z,99.90
2023-05-21T05:49:52.868Z,99.90
2023-05-21T05:52:19.863Z,99.90
2023-05-21T05:54:47.628Z,99.90
2023-05-21T05:57:14.859Z,99.90
2023-05-21T05:59:41.887Z,99.90
2023-05-21T06:02:08.907Z,99.90
2023-05-21T06:04:36.086Z,99.90
2023-05-21T06:07:03.171Z,99.90
2023-05-21T06:09:30.230Z,99.90
2023-05-21T06:11:57.253Z,99.90
2023-05-21T06:14:24.215Z,99.90
2023-05-21T06:16:51.218Z,99.90
2023-05-21T06:19:18.243Z,99.90
2023-05-21T06:21:45.264Z,99.90
2023-05-21T06:24:12.305Z,99.90
2023-05-21T06:26:39.354Z,99.90
2023-05-21T06:29:06.468Z,99.90
2023-05-21T06:31:33.562Z,99.90
2023-05-21T06:34:01.799Z,99.90
2023-05-21T06:36:30.445Z,99.90
2023-05-21T06:38:57.538Z,99.90
2023-05-21T06:41:24.596Z,99.90
2023-05-21T06:43:51.785Z,99.90
2023-05-21T06:46:18.912Z,99.90
2023-05-21T06:48:48.639Z,99.90
2023-05-21T06:51:15.757Z,99.90
2023-05-21T06:53:42.778Z,99.90
2023-05-21T06:56:09.843Z,99.90
2023-05-21T06:58:36.951Z,99.90
2023-05-21T07:01:04.063Z,99.90
2023-05-21T07:03:31.407Z,99.90
2023-05-21T07:05:58.944Z,99.90
2023-05-21T07:08:26.025Z,99.90
2023-05-21T07:10:53.089Z,99.90
2023-05-21T07:13:20.201Z,99.90
2023-05-21T07:15:47.300Z,99.90
2023-05-21T07:18:14.475Z,99.90
2023-05-21T07:20:41.589Z,99.90
2023-05-21T07:23:08.702Z,99.90
2023-05-21T07:25:36.337Z,99.90
2023-05-21T07:28:05.895Z,99.90
2023-05-21T07:30:33.693Z,99.90
2023-05-21T07:33:00.726Z,99.90
2023-05-21T07:35:27.899Z,99.90
2023-05-21T07:37:54.965Z,99.90
2023-05-21T07:40:22.027Z,99.90
2023-05-21T07:42:49.064Z,99.90
2023-05-21T07:45:16.080Z,99.90
2023-05-21T07:47:45.906Z,99.90
2023-05-21T07:50:14.138Z,99.90
2023-05-21T07:52:41.260Z,99.90
2023-05-21T07:55:10.356Z,99.90
2023-05-21T07:57:37.550Z,99.90
2023-05-21T08:00:08.467Z,99.90
2023-05-21T08:02:36.070Z,99.90
2023-05-21T08:05:03.663Z,99.90
2023-05-21T08:07:32.120Z,99.90
2023-05-21T08:09:59.366Z,99.90
2023-05-21T08:12:26.368Z,99.90
2023-05-21T08:14:53.390Z,99.90
2023-05-21T08:17:20.611Z,99.90
2023-05-21T08:19:47.754Z,99.90
2023-05-21T08:22:14.810Z,99.90
2023-05-21T08:24:41.901Z,99.90
2023-05-21T08:27:08.982Z,99.90
2023-05-21T08:29:36.087Z,99.90
2023-05-21T08:32:03.295Z,99.90
2023-05-21T08:34:30.445Z,99.90
2023-05-21T08:36:57.511Z,99.90
2023-05-21T08:39:24.580Z,99.90
2023-05-21T08:41:58.132Z,99.90
2023-05-21T08:44:28.602Z,99.90
2023-05-21T08:46:58.018Z,99.90
2023-05-21T08:49:30.571Z,99.90
2023-05-21T08:51:59.153Z,99.90
2023-05-21T08:54:28.429Z,99.90
2023-05-21T08:56:56.765Z,99.90
2023-05-21T08:59:24.303Z,99.90
2023-05-21T09:01:53.092Z,99.90
2023-05-21T09:04:21.927Z,99.90
2023-05-21T09:06:50.606Z,99.90
2023-05-21T09:09:33.480Z,99.90
2023-05-21T09:12:01.086Z,99.90
2023-05-21T09:14:29.239Z,99.90
2023-05-21T09:16:56.355Z,99.90
2023-05-21T09:19:23.858Z,99.90
2023-05-21T09:21:53.907Z,99.90
2023-05-21T09:24:23.857Z,99.90
2023-05-21T09:26:51.483Z,99.90
2023-05-21T09:29:18.804Z,99.90
2023-05-21T09:31:46.199Z,99.90
2023-05-21T09:34:14.358Z,99.90
2023-05-21T09:36:41.470Z,99.90
2023-05-21T09:39:09.097Z,99.90
2023-05-21T09:41:37.258Z,99.90
2023-05-21T09:44:04.975Z,99.90
2023-05-21T09:46:41.899Z,99.90
2023-05-21T09:49:26.813Z,99.90
2023-05-21T09:51:59.877Z,99.90
2023-05-21T09:54:33.273Z,99.90
2023-05-21T09:57:03.735Z,99.90
2023-05-21T09:59:40.984Z,99.90
2023-05-21T10:02:22.960Z,99.90
2023-05-21T10:04:53.028Z,99.90
2023-05-21T10:07:25.999Z,99.90
2023-05-21T10:09:58.143Z,99.90
2023-05-21T10:12:26.141Z,99.90
2023-05-21T10:15:01.404Z,99.90
2023-05-21T10:17:31.146Z,99.90
2023-05-21T10:20:00.991Z,99.90
2023-05-21T10:22:28.913Z,99.90
2023-05-21T10:24:57.413Z,99.90
2023-05-21T10:27:24.591Z,99.90
2023-05-21T10:29:53.529Z,99.90
2023-05-21T10:32:23.025Z,99.90
2023-05-21T10:34:53.608Z,99.90
2023-05-21T10:37:29.861Z,99.90
2023-05-21T10:39:58.149Z,99.90
2023-05-21T10:42:31.164Z,99.90
2023-05-21T10:45:39.673Z,99.90
2023-05-21T10:48:23.872Z,99.90
2023-05-21T10:51:08.785Z,99.90
2023-05-21T10:54:09.147Z,99.90
2023-05-21T10:57:00.372Z,99.90
2023-05-21T10:59:47.040Z,99.90
2023-05-21T11:02:15.915Z,99.90
2023-05-21T11:04:46.255Z,99.90
2023-05-21T11:07:13.493Z,99.90
2023-05-21T11:09:40.589Z,99.90
2023-05-21T11:12:10.344Z,99.90
2023-05-21T11:14:40.300Z,99.90
2023-05-21T11:17:12.736Z,99.90
2023-05-21T11:19:47.655Z,99.90
2023-05-21T11:22:25.662Z,99.90
2023-05-21T11:24:56.819Z,99.90
2023-05-21T11:27:41.140Z,99.90
2023-05-21T11:30:10.005Z,99.90
2023-05-21T11:32:41.509Z,99.90
2023-05-21T11:35:09.141Z,99.90
2023-05-21T11:37:37.975Z,99.90
2023-05-21T11:40:25.984Z,99.90
2023-05-21T11:42:55.341Z,99.90
2023-05-21T11:45:31.427Z,99.90
2023-05-21T11:47:58.987Z,99.90
2023-05-21T11:50:26.151Z,99.90
2023-05-21T11:52:53.582Z,99.90
2023-05-21T11:55:26.133Z,99.90
2023-05-21T11:57:54.808Z,99.90
2023-05-21T12:00:22.028Z,99.90
2023-05-21T12:02:52.350Z,99.90
2023-05-21T12:05:19.664Z,99.90
2023-05-21T12:07:51.167Z,99.90
2023-05-21T12:10:21.930Z,99.90
2023-05-21T12:12:55.684Z,99.90
2023-05-21T12:15:25.241Z,99.90
2023-05-21T12:17:53.270Z,99.90
2023-05-21T12:20:20.979Z,99.90
2023-05-21T12:22:50.443Z,99.90
2023-05-21T12:25:21.378Z,99.90
2023-05-21T12:27:52.830Z,99.90
2023-05-21T12:30:21.283Z,99.90
2023-05-21T12:32:49.632Z,99.90
2023-05-21T12:35:24.186Z,99.90
2023-05-21T12:37:52.395Z,99.90
2023-05-21T12:40:20.645Z,99.90
2023-05-21T12:42:47.716Z,99.90
2023-05-21T12:45:15.165Z,99.90
2023-05-21T12:47:47.847Z,99.90
2023-05-21T12:50:14.925Z,99.90
2023-05-21T12:52:44.873Z,99.90
2023-05-21T12:55:15.125Z,99.90
2023-05-21T12:57:44.018Z,99.90
2023-05-21T13:00:16.177Z,99.90
2023-05-21T13:02:44.575Z,99.90
2023-05-21T13:05:17.925Z,99.90
2023-05-21T13:07:47.466Z,99.90
2023-05-21T13:10:16.845Z,99.60
2023-05-21T13:12:45.789Z,99.90
2023-05-21T13:15:13.349Z,99.90
2023-05-21T13:17:40.502Z,99.50
2023-05-21T13:20:12.892Z,99.00
2023-05-21T13:22:47.194Z,99.70
2023-05-21T13:25:25.037Z,97.80
2023-05-21T13:27:53.746Z,97.40
2023-05-21T13:30:22.402Z,97.60
2023-05-21T13:32:54.680Z,95.80
2023-05-21T13:35:22.974Z,95.60
2023-05-21T13:37:52.140Z,96.10
2023-05-21T13:40:24.548Z,96.40
2023-05-21T13:42:51.713Z,94.40
2023-05-21T13:45:20.467Z,94.90
2023-05-21T13:47:48.389Z,94.90
2023-05-21T13:50:16.406Z,95.60
2023-05-21T13:52:43.569Z,94.10
2023-05-21T13:55:11.018Z,93.80
2023-05-21T13:57:38.242Z,94.00
2023-05-21T14:00:06.170Z,93.90
2023-05-21T14:02:34.749Z,93.30
2023-05-21T14:05:02.009Z,92.80
2023-05-21T14:07:29.209Z,93.80
2023-05-21T14:09:56.219Z,93.90
2023-05-21T14:12:23.289Z,92.50
2023-05-21T14:14:50.535Z,94.10
2023-05-21T14:17:17.629Z,91.30
2023-05-21T14:19:44.701Z,92.40
2023-05-21T14:22:11.791Z,91.80
2023-05-21T14:24:38.809Z,92.50
2023-05-21T14:27:05.982Z,92.40
2023-05-21T14:29:33.641Z,93.20
2023-05-21T14:32:00.780Z,93.00
2023-05-21T14:34:27.935Z,91.00
2023-05-21T14:36:55.035Z,90.20
2023-05-21T14:39:22.450Z,90.90
2023-05-21T14:41:49.566Z,89.40
2023-05-21T14:44:16.670Z,88.10
2023-05-21T14:46:43.829Z,90.10
2023-05-21T14:49:12.055Z,91.20
2023-05-21T14:51:39.056Z,91.60
2023-05-21T14:54:06.272Z,90.70
2023-05-21T14:56:33.331Z,90.90
2023-05-21T14:59:00.605Z,90.40
2023-05-21T15:01:27.874Z,90.20
2023-05-21T15:03:57.118Z,90.70
2023-05-21T15:06:24.494Z,90.80
2023-05-21T15:08:51.576Z,90.00
2023-05-21T15:11:18.657Z,90.10
2023-05-21T15:13:46.506Z,87.50
2023-05-21T15:16:13.561Z,87.70
2023-05-21T15:18:41.377Z,88.70
2023-05-21T15:21:08.465Z,87.60
2023-05-21T15:23:35.570Z,88.80
2023-05-21T15:26:02.793Z,89.00
2023-05-21T15:28:29.873Z,89.90
2023-05-21T15:30:57.075Z,90.00
2023-05-21T15:33:24.230Z,89.50
2023-05-21T15:35:51.477Z,87.20
2023-05-21T15:38:18.706Z,88.00
2023-05-21T15:40:45.802Z,89.70
2023-05-21T15:43:12.950Z,90.40
2023-05-21T15:45:40.335Z,90.30
2023-05-21T15:48:07.716Z,90.30
2023-05-21T15:50:38.503Z,91.90
2023-05-21T15:53:05.751Z,92.40
2023-05-21T15:55:33.869Z,92.40
2023-05-21T15:58:02.410Z,92.90
2023-05-21T16:00:29.838Z,92.90
2023-05-21T16:02:56.908Z,93.20
2023-05-21T16:05:24.079Z,93.60
2023-05-21T16:07:51.607Z,93.40
2023-05-21T16:10:18.664Z,93.00
2023-05-21T16:12:45.998Z,92.10
2023-05-21T16:15:13.429Z,91.60
2023-05-21T16:17:40.932Z,91.40
2023-05-21T16:20:08.430Z,91.60
2023-05-21T16:22:35.540Z,91.20
2023-05-21T16:25:03.381Z,91.50
2023-05-21T16:27:30.471Z,91.60
2023-05-21T16:29:58.449Z,92.20
2023-05-21T16:32:25.630Z,91.90
2023-05-21T16:34:52.834Z,91.90
2023-05-21T16:37:19.999Z,91.80
2023-05-21T16:39:47.099Z,91.70
2023-05-21T16:42:14.155Z,91.80
2023-05-21T16:44:41.286Z,91.70
2023-05-21T16:47:08.676Z,91.60
2023-05-21T16:49:35.779Z,91.90
2023-05-21T16:52:03.494Z,91.90
2023-05-21T16:54:30.802Z,92.10
2023-05-21T16:56:57.958Z,92.10
2023-05-21T16:59:25.060Z,92.50
2023-05-21T17:01:52.162Z,92.40
2023-05-21T17:04:19.327Z,92.30
2023-05-21T17:06:46.463Z,92.60
2023-05-21T17:09:13.641Z,92.70
2023-05-21T17:11:43.371Z,92.90
2023-05-21T17:14:11.972Z,92.80
2023-05-21T17:16:42.980Z,93.40
2023-05-21T17:19:10.363Z,93.40
2023-05-21T17:21:37.763Z,93.50
2023-05-21T17:24:05.173Z,94.00
2023-05-21T17:26:32.240Z,93.60
2023-05-21T17:28:59.320Z,93.90
2023-05-21T17:31:27.107Z,94.20
2023-05-21T17:33:56.342Z,94.10
2023-05-21T17:36:23.445Z,94.20
2023-05-21T17:38:51.097Z,93.60
2023-05-21T17:41:19.239Z,94.00
2023-05-21T17:43:46.343Z,93.30
2023-05-21T17:46:17.757Z,92.90
2023-05-21T17:48:45.763Z,92.70
2023-05-21T17:51:14.220Z,92.50
2023-05-21T17:53:41.689Z,92.20
2023-05-21T17:56:10.631Z,92.20
2023-05-21T17:58:37.799Z,92.00
2023-05-21T18:01:04.908Z,92.40
2023-05-21T18:03:32.201Z,92.40
2023-05-21T18:05:59.370Z,92.90
2023-05-21T18:08:27.113Z,92.80
2023-05-21T18:10:54.213Z,93.20
2023-05-21T18:13:21.561Z,93.60
2023-05-21T18:15:49.069Z,94.00
2023-05-21T18:18:20.656Z,94.40
2023-05-21T18:20:49.563Z,94.90
2023-05-21T18:23:17.474Z,95.50
2023-05-21T18:25:44.607Z,95.90
2023-05-21T18:28:11.972Z,96.80
2023-05-21T18:30:39.910Z,97.60
2023-05-21T18:33:08.531Z,97.70
2023-05-21T18:35:35.831Z,99.50
2023-05-21T18:38:04.306Z,99.90
2023-05-21T18:40:33.423Z,99.90
2023-05-21T18:43:00.884Z,99.90
2023-05-21T18:45:28.195Z,99.90
2023-05-21T18:47:56.179Z,99.90
2023-05-21T18:50:23.370Z,99.90
2023-05-21T18:52:54.077Z,99.90
2023-05-21T18:55:21.478Z,99.90
2023-05-21T18:57:50.997Z,99.90
2023-05-21T19:00:18.438Z,99.90
2023-05-21T19:02:47.095Z,99.90
2023-05-21T19:05:14.715Z,99.90
2023-05-21T19:07:42.385Z,99.90
2023-05-21T19:10:11.783Z,99.90
2023-05-21T19:12:39.998Z,99.90
2023-05-21T19:15:07.899Z,99.90
2023-05-21T19:17:36.446Z,99.90
2023-05-21T19:20:05.721Z,99.90
2023-05-21T19:22:33.242Z,99.90
2023-05-21T19:25:01.268Z,99.90
2023-05-21T19:27:29.582Z,99.90
2023-05-21T19:29:56.735Z,99.90
2023-05-21T19:32:24.054Z,99.90
2023-05-21T19:34:52.444Z,99.90
2023-05-21T19:37:20.057Z,99.90
2023-05-21T19:39:50.478Z,99.90
2023-05-21T19:42:19.985Z,99.90
2023-05-21T19:44:47.133Z,99.90
2023-05-21T19:47:14.767Z,99.90
2023-05-21T19:49:42.430Z,99.90
2023-05-21T19:52:10.685Z,99.90
2023-05-21T19:54:37.749Z,99.90
2023-05-21T19:57:05.047Z,99.90
2023-05-21T19:59:32.195Z,99.90
2023-05-21T20:01:59.221Z,99.90
2023-05-21T20:04:26.412Z,99.90
2023-05-21T20:06:53.571Z,99.90
2023-05-21T20:09:20.622Z,99.90
2023-05-21T20:11:48.403Z,99.90
2023-05-21T20:14:15.779Z,99.90
2023-05-21T20:16:42.996Z,99.90
2023-05-21T20:19:11.003Z,99.90
2023-05-21T20:21:38.131Z,99.90
2023-05-21T20:24:05.706Z,99.90
2023-05-21T20:26:35.130Z,99.90
2023-05-21T20:29:02.372Z,99.90
2023-05-21T20:31:29.854Z,99.90
2023-05-21T20:33:56.883Z,99.90
2023-05-21T20:36:24.000Z,99.90
2023-05-21T20:38:51.081Z,99.90
2023-05-21T20:41:18.312Z,99.90
2023-05-21T20:43:46.537Z,99.90
2023-05-21T20:46:13.693Z,99.90
2023-05-21T20:48:41.992Z,99.90
2023-05-21T20:51:09.337Z,99.90
2023-05-21T20:53:37.096Z,99.90
2023-05-21T20:56:08.412Z,99.90
2023-05-21T20:58:41.865Z,99.90
2023-05-21T21:01:10.844Z,99.90
2023-05-21T21:03:41.624Z,99.90
2023-05-21T21:06:10.170Z,99.90
2023-05-21T21:08:37.230Z,99.90
2023-05-21T21:11:04.681Z,99.90
2023-05-21T21:13:35.334Z,99.90
2023-05-21T21:16:03.973Z,99.90
2023-05-21T21:18:31.882Z,99.90
2023-05-21T21:21:02.270Z,99.90
2023-05-21T21:23:30.464Z,99.90
2023-05-21T21:25:57.714Z,99.90
2023-05-21T21:28:25.545Z,99.90
2023-05-21T21:30:53.206Z,99.90
2023-05-21T21:33:20.789Z,99.90
2023-05-21T21:35:47.839Z,99.90
2023-05-21T21:38:14.931Z,99.90
2023-05-21T21:40:41.992Z,99.90
2023-05-21T21:43:09.094Z,99.90
2023-05-21T21:45:36.583Z,99.90
2023-05-21T21:48:03.811Z,99.90
2023-05-21T21:50:30.932Z,99.90
2023-05-21T21:52:58.152Z,99.90
2023-05-21T21:55:25.240Z,99.90
2023-05-21T21:57:52.307Z,99.90
2023-05-21T22:00:19.695Z,99.90
2023-05-21T22:02:46.956Z,99.90
2023-05-21T22:05:17.278Z,99.90
2023-05-21T22:07:48.190Z,99.90
2023-05-21T22:10:16.439Z,99.90
2023-05-21T22:12:44.556Z,99.90
2023-05-21T22:15:23.214Z,99.90
2023-05-21T22:17:52.104Z,99.90
2023-05-21T22:20:19.462Z,99.90
2023-05-21T22:22:47.332Z,99.90
2023-05-21T22:25:14.674Z,99.90
2023-05-21T22:27:43.193Z,99.90
2023-05-21T22:30:10.846Z,99.90
2023-05-21T22:32:38.406Z,99.90
2023-05-21T22:35:06.632Z,99.90
2023-05-21T22:37:33.884Z,99.90
2023-05-21T22:40:01.201Z,99.90
2023-05-21T22:42:28.390Z,99.90
2023-05-21T22:44:55.794Z,99.90
2023-05-21T22:47:24.151Z,99.90
2023-05-21T22:49:54.098Z,99.90
2023-05-21T22:52:24.281Z,99.90
2023-05-21T22:54:53.133Z,99.90
2023-05-21T22:57:21.004Z,99.90
2023-05-21T22:59:48.101Z,99.90
2023-05-21T23:02:16.272Z,99.90
2023-05-21T23:04:44.541Z,99.90
2023-05-21T23:07:12.559Z,99.90
2023-05-21T23:09:39.676Z,99.90
2023-05-21T23:12:07.236Z,99.90
2023-05-21T23:14:34.421Z,99.90
2023-05-21T23:17:04.652Z,99.90
2023-05-21T23:19:33.341Z,99.90
2023-05-21T23:22:00.740Z,99.90
2023-05-21T23:24:29.829Z,99.90
2023-05-21T23:27:02.030Z,99.90
2023-05-21T23:29:31.243Z,99.90
2023-05-21T23:31:58.600Z,99.90
2023-05-21T23:34:25.938Z,99.90
2023-05-21T23:36:53.421Z,99.90
2023-05-21T23:39:21.060Z,99.90
2023-05-21T23:41:48.408Z,99.90
2023-05-21T23:44:15.759Z,99.90
2023-05-21T23:46:45.907Z,99.90
2023-05-21T23:49:13.033Z,99.90
2023-05-21T23:51:40.229Z,99.90
2023-05-21T23:54:08.278Z,99.90
2023-05-21T23:56:35.465Z,99.90
2023-05-21T23:59:04.023Z,99.90
